createdAt,value
2018-09-27T00:00:29.904Z,99.99
2018-09-27T00:01:30.155Z,98.66
2018-09-27T00:02:29.873Z,99.32
2018-09-27T00:03:30.130Z,99.9
2018-09-27T00:04:30.114Z,99.32
2018-09-27T00:05:29.837Z,99.04
2018-09-27T00:06:30.099Z,98.18
2018-09-27T00:07:29.802Z,98.18
2018-09-27T00:08:30.050Z,97.42
2018-09-27T00:09:30.038Z,98.27
2018-09-27T00:10:30.021Z,99.32
2018-09-27T00:11:30.011Z,99.23
2018-09-27T00:12:29.999Z,99.61
2018-09-27T00:13:29.979Z,99.99
2018-09-27T00:14:29.702Z,98.56
2018-09-27T00:15:29.695Z,98.27
2018-09-27T00:16:29.671Z,99.04
2018-09-27T00:17:29.924Z,97.89
2018-09-27T00:18:29.901Z,98.27
2018-09-27T00:19:29.985Z,98.08
2018-09-27T00:20:29.609Z,97.27
2018-09-27T00:21:29.855Z,96.98
2018-09-27T00:22:29.581Z,95.46
2018-09-27T00:23:29.828Z,94.7
2018-09-27T00:24:29.813Z,96.32
2018-09-27T00:25:29.802Z,98.99
2018-09-27T00:26:29.783Z,99.99
2018-09-27T00:27:29.769Z,99.99
2018-09-27T00:28:29.757Z,99.99
2018-09-27T00:29:29.476Z,99.99
2018-09-27T00:30:29.471Z,99.99
2018-09-27T00:31:29.719Z,99.99
2018-09-27T00:32:29.698Z,99.99
2018-09-27T00:33:29.420Z,99.99
2018-09-27T00:34:29.665Z,99.99
2018-09-27T00:35:29.651Z,99.99
2018-09-27T00:36:29.377Z,99.99
2018-09-27T00:37:29.624Z,99.99
2018-09-27T00:38:29.606Z,99.99
2018-09-27T00:39:29.331Z,99.99
2018-09-27T00:40:29.579Z,99.99
2018-09-27T00:41:29.563Z,99.99
2018-09-27T00:42:29.549Z,99.99
2018-09-27T00:43:29.533Z,99.99
2018-09-27T00:44:29.524Z,99.99
2018-09-27T00:45:29.239Z,99.99
2018-09-27T00:46:29.500Z,99.99
2018-09-27T00:47:29.213Z,99.99
2018-09-27T00:48:29.203Z,99.99
2018-09-27T00:49:29.449Z,99.99
2018-09-27T00:50:29.430Z,99.99
2018-09-27T00:51:29.419Z,99.99
2018-09-27T00:52:29.403Z,99.99
2018-09-27T00:53:29.127Z,99.99
2018-09-27T00:54:29.381Z,99.99
2018-09-27T00:55:29.360Z,99.99
2018-09-27T00:56:29.080Z,99.99
2018-09-27T00:57:29.066Z,99.99
2018-09-27T00:58:29.317Z,99.99
2018-09-27T00:59:29.301Z,99.99
2018-09-27T01:00:29.288Z,99.99
2018-09-27T01:01:29.273Z,99.99
2018-09-27T01:02:29.257Z,99.99
2018-09-27T01:03:29.243Z,99.99
2018-09-27T01:04:29.230Z,99.99
2018-09-27T01:05:29.219Z,99.99
2018-09-27T01:06:29.198Z,99.99
2018-09-27T01:07:28.925Z,99.99
2018-09-27T01:08:28.907Z,99.99
2018-09-27T01:09:28.890Z,99.99
2018-09-27T01:10:28.879Z,99.99
2018-09-27T01:11:28.864Z,99.99
2018-09-27T01:12:28.849Z,99.99
2018-09-27T01:13:28.838Z,99.99
2018-09-27T01:14:28.821Z,99.99
2018-09-27T01:15:28.806Z,99.99
2018-09-27T01:16:29.054Z,99.99
2018-09-27T01:17:29.047Z,99.99
2018-09-27T01:18:29.031Z,99.99
2018-09-27T01:19:28.757Z,99.99
2018-09-27T01:20:29.001Z,99.99
2018-09-27T01:21:28.722Z,99.99
2018-09-27T01:22:28.708Z,99.99
2018-09-27T01:23:28.693Z,99.99
2018-09-27T01:24:28.949Z,99.99
2018-09-27T01:25:28.933Z,99.99
2018-09-27T01:26:28.921Z,99.99
2018-09-27T01:27:28.903Z,99.99
2018-09-27T01:28:28.889Z,99.99
2018-09-27T01:29:28.877Z,99.99
2018-09-27T01:30:28.860Z,99.99
2018-09-27T01:31:28.579Z,99.99
2018-09-27T01:32:28.565Z,99.99
2018-09-27T01:33:28.815Z,99.99
2018-09-27T01:34:28.805Z,99.99
2018-09-27T01:35:28.530Z,99.99
2018-09-27T01:36:28.777Z,99.99
2018-09-27T01:37:28.804Z,99.99
2018-09-27T01:38:28.751Z,99.99
2018-09-27T01:39:28.729Z,99.99
2018-09-27T01:40:28.723Z,99.99
2018-09-27T01:41:28.701Z,99.99
2018-09-27T01:42:28.688Z,99.99
2018-09-27T01:43:28.420Z,99.99
2018-09-27T01:44:28.661Z,99.99
2018-09-27T01:45:28.383Z,99.99
2018-09-27T01:46:28.630Z,99.99
2018-09-27T01:47:28.618Z,99.99
2018-09-27T01:48:28.667Z,99.99
2018-09-27T01:49:28.326Z,99.99
2018-09-27T01:50:28.594Z,99.99
2018-09-27T01:51:28.561Z,99.99
2018-09-27T01:52:28.555Z,99.99
2018-09-27T01:53:28.275Z,99.99
2018-09-27T01:54:28.259Z,99.99
2018-09-27T01:55:28.511Z,99.99
2018-09-27T01:56:28.490Z,99.99
2018-09-27T01:57:28.213Z,99.99
2018-09-27T01:58:28.464Z,99.99
2018-09-27T01:59:28.450Z,99.99
2018-09-27T02:00:28.439Z,99.99
2018-09-27T02:01:28.430Z,99.99
2018-09-27T02:02:28.410Z,99.99
2018-09-27T02:03:28.140Z,99.99
2018-09-27T02:04:28.383Z,99.99
2018-09-27T02:05:28.365Z,99.99
2018-09-27T02:06:28.355Z,99.99
2018-09-27T02:07:28.340Z,99.99
2018-09-27T02:08:28.333Z,99.99
2018-09-27T02:09:28.312Z,99.99
2018-09-27T02:10:28.300Z,99.99
2018-09-27T02:11:28.020Z,99.99
2018-09-27T02:12:28.271Z,99.99
2018-09-27T02:13:28.253Z,99.99
2018-09-27T02:14:27.976Z,99.99
2018-09-27T02:15:27.963Z,99.99
2018-09-27T02:16:28.214Z,99.99
2018-09-27T02:17:27.938Z,99.99
2018-09-27T02:18:28.185Z,99.99
2018-09-27T02:19:27.905Z,99.99
2018-09-27T02:20:27.897Z,99.99
2018-09-27T02:21:27.880Z,99.99
2018-09-27T02:22:28.132Z,99.99
2018-09-27T02:23:28.116Z,99.99
2018-09-27T02:24:28.106Z,99.99
2018-09-27T02:25:27.825Z,99.99
2018-09-27T02:26:27.814Z,99.99
2018-09-27T02:27:28.073Z,99.99
2018-09-27T02:28:28.045Z,99.99
2018-09-27T02:29:27.768Z,99.99
2018-09-27T02:30:27.753Z,99.99
2018-09-27T02:31:27.745Z,99.99
2018-09-27T02:32:27.998Z,99.99
2018-09-27T02:33:27.972Z,99.99
2018-09-27T02:34:27.960Z,99.99
2018-09-27T02:35:27.687Z,99.99
2018-09-27T02:36:27.933Z,99.99
2018-09-27T02:37:27.921Z,99.99
2018-09-27T02:38:27.648Z,99.99
2018-09-27T02:39:27.895Z,99.99
2018-09-27T02:40:27.878Z,99.99
2018-09-27T02:41:27.600Z,99.99
2018-09-27T02:42:27.590Z,99.99
2018-09-27T02:43:27.581Z,99.99
2018-09-27T02:44:27.563Z,99.99
2018-09-27T02:45:27.817Z,99.99
2018-09-27T02:46:27.533Z,99.99
2018-09-27T02:47:27.521Z,99.99
2018-09-27T02:48:27.777Z,99.99
2018-09-27T02:49:27.491Z,99.99
2018-09-27T02:50:27.742Z,99.99
2018-09-27T02:51:27.472Z,99.99
2018-09-27T02:52:27.449Z,99.99
2018-09-27T02:53:27.707Z,99.99
2018-09-27T02:54:27.688Z,99.99
2018-09-27T02:55:27.420Z,99.99
2018-09-27T02:56:27.663Z,99.99
2018-09-27T02:57:27.651Z,99.99
2018-09-27T02:58:27.363Z,99.99
2018-09-27T02:59:27.620Z,99.99
2018-09-27T03:00:27.342Z,99.99
2018-09-27T03:01:27.592Z,99.99
2018-09-27T03:02:27.307Z,99.99
2018-09-27T03:03:27.295Z,99.99
2018-09-27T03:04:27.557Z,99.99
2018-09-27T03:05:27.531Z,99.99
2018-09-27T03:06:27.515Z,99.99
2018-09-27T03:07:27.503Z,99.99
2018-09-27T03:08:27.489Z,99.99
2018-09-27T03:09:27.474Z,99.99
2018-09-27T03:10:27.195Z,99.99
2018-09-27T03:11:27.447Z,99.99
2018-09-27T03:12:27.428Z,99.99
2018-09-27T03:13:27.420Z,99.99
2018-09-27T03:14:27.143Z,99.99
2018-09-27T03:15:27.138Z,99.99
2018-09-27T03:16:27.381Z,99.99
2018-09-27T03:17:27.361Z,99.99
2018-09-27T03:18:27.083Z,99.99
2018-09-27T03:19:27.077Z,99.99
2018-09-27T03:20:27.054Z,99.99
2018-09-27T03:21:27.306Z,99.99
2018-09-27T03:22:27.309Z,99.99
2018-09-27T03:23:27.272Z,99.99
2018-09-27T03:24:26.996Z,99.99
2018-09-27T03:25:26.987Z,99.99
2018-09-27T03:26:26.974Z,99.99
2018-09-27T03:27:27.215Z,99.99
2018-09-27T03:28:27.203Z,99.99
2018-09-27T03:29:27.190Z,99.99
2018-09-27T03:30:27.181Z,99.99
2018-09-27T03:31:26.907Z,99.99
2018-09-27T03:32:26.888Z,99.99
2018-09-27T03:33:26.870Z,99.99
2018-09-27T03:34:26.853Z,99.99
2018-09-27T03:35:26.833Z,99.99
2018-09-27T03:36:26.824Z,99.99
2018-09-27T03:37:41.711Z,99.99
2018-09-27T03:38:27.065Z,99.99
2018-09-27T03:39:27.049Z,99.99
2018-09-27T03:40:26.803Z,99.99
2018-09-27T03:41:27.024Z,99.99
2018-09-27T03:42:27.011Z,99.99
2018-09-27T03:43:26.722Z,99.99
2018-09-27T03:44:26.974Z,99.99
2018-09-27T03:45:26.959Z,99.99
2018-09-27T03:46:26.941Z,99.99
2018-09-27T03:47:26.660Z,99.99
2018-09-27T03:48:26.911Z,99.99
2018-09-27T03:49:26.959Z,99.99
2018-09-27T03:50:26.886Z,99.99
2018-09-27T03:51:26.897Z,99.99
2018-09-27T03:52:26.595Z,99.99
2018-09-27T03:53:26.845Z,99.99
2018-09-27T03:54:26.562Z,99.99
2018-09-27T03:55:26.542Z,99.99
2018-09-27T03:56:26.534Z,99.99
2018-09-27T03:57:26.780Z,99.99
2018-09-27T03:58:26.773Z,99.99
2018-09-27T03:59:26.490Z,99.99
2018-09-27T04:00:26.738Z,99.99
2018-09-27T04:01:26.719Z,99.99
2018-09-27T04:02:26.708Z,99.99
2018-09-27T04:03:26.484Z,99.99
2018-09-27T04:04:26.411Z,99.99
2018-09-27T04:05:26.396Z,99.99
2018-09-27T04:06:26.653Z,99.99
2018-09-27T04:07:26.640Z,99.99
2018-09-27T04:08:26.351Z,99.99
2018-09-27T04:09:26.339Z,99.99
2018-09-27T04:10:26.328Z,99.99
2018-09-27T04:11:26.570Z,99.99
2018-09-27T04:12:26.299Z,99.99
2018-09-27T04:13:26.546Z,99.99
2018-09-27T04:14:26.530Z,99.99
2018-09-27T04:15:26.248Z,99.99
2018-09-27T04:16:26.233Z,99.99
2018-09-27T04:17:26.223Z,99.99
2018-09-27T04:18:26.469Z,99.99
2018-09-27T04:19:26.188Z,99.99
2018-09-27T04:20:26.443Z,99.99
2018-09-27T04:21:26.165Z,99.99
2018-09-27T04:22:26.148Z,99.99
2018-09-27T04:23:26.130Z,99.99
2018-09-27T04:24:26.115Z,99.99
2018-09-27T04:25:26.097Z,99.99
2018-09-27T04:26:26.347Z,99.99
2018-09-27T04:27:26.073Z,99.99
2018-09-27T04:28:26.325Z,99.99
2018-09-27T04:29:26.302Z,99.99
2018-09-27T04:30:26.022Z,99.99
2018-09-27T04:31:26.270Z,99.99
2018-09-27T04:32:25.997Z,99.99
2018-09-27T04:33:26.243Z,99.99
2018-09-27T04:34:25.960Z,99.99
2018-09-27T04:35:25.949Z,99.99
2018-09-27T04:36:26.203Z,99.99
2018-09-27T04:37:26.178Z,99.99
2018-09-27T04:38:25.955Z,99.99
2018-09-27T04:39:26.154Z,99.99
2018-09-27T04:40:25.870Z,99.99
2018-09-27T04:41:25.856Z,99.99
2018-09-27T04:42:26.112Z,99.99
2018-09-27T04:43:26.092Z,99.99
2018-09-27T04:44:26.127Z,99.99
2018-09-27T04:45:25.793Z,99.99
2018-09-27T04:46:25.778Z,99.99
2018-09-27T04:47:25.761Z,99.99
2018-09-27T04:48:26.011Z,99.99
2018-09-27T04:49:25.993Z,99.99
2018-09-27T04:50:25.980Z,99.99
2018-09-27T04:51:25.706Z,99.99
2018-09-27T04:52:25.957Z,99.99
2018-09-27T04:53:25.935Z,99.99
2018-09-27T04:54:26.052Z,99.99
2018-09-27T04:55:25.906Z,99.99
2018-09-27T04:56:25.624Z,99.99
2018-09-27T04:57:25.811Z,99.99
2018-09-27T04:58:25.858Z,99.99
2018-09-27T04:59:25.581Z,99.99
2018-09-27T05:00:25.568Z,99.99
2018-09-27T05:01:25.816Z,99.89
2018-09-27T05:02:25.794Z,99.99
2018-09-27T05:03:25.782Z,99.8
2018-09-27T05:04:25.505Z,99.32
2018-09-27T05:05:25.747Z,99.13
2018-09-27T05:06:25.530Z,99.04
2018-09-27T05:07:25.454Z,99.22
2018-09-27T05:08:25.702Z,99.04
2018-09-27T05:09:25.762Z,97.7
2018-09-27T05:10:25.671Z,97.99
2018-09-27T05:11:25.390Z,97.32
2018-09-27T05:12:25.642Z,96.65
2018-09-27T05:13:25.357Z,96.65
2018-09-27T05:14:25.605Z,97.13
2018-09-27T05:15:25.638Z,97.41
2018-09-27T05:16:25.580Z,97.41
2018-09-27T05:17:25.559Z,97.13
2018-09-27T05:18:25.280Z,97.41
2018-09-27T05:19:25.266Z,97.22
2018-09-27T05:20:25.566Z,97.51
2018-09-27T05:21:25.265Z,97.03
2018-09-27T05:22:25.218Z,97.03
2018-09-27T05:23:25.471Z,96.75
2018-09-27T05:24:25.192Z,96.08
2018-09-27T05:25:25.438Z,96.08
2018-09-27T05:26:25.155Z,94.74
2018-09-27T05:27:25.496Z,95.32
2018-09-27T05:28:25.387Z,95.22
2018-09-27T05:29:25.375Z,94.37
2018-09-27T05:30:25.357Z,94.13
2018-09-27T05:31:25.342Z,93.88
2018-09-27T05:32:25.058Z,94.08
2018-09-27T05:33:25.373Z,94.03
2018-09-27T05:34:25.296Z,94.08
2018-09-27T05:35:25.015Z,93.98
2018-09-27T05:36:24.997Z,93.55
2018-09-27T05:37:24.979Z,93.51
2018-09-27T05:38:24.964Z,93.32
2018-09-27T05:39:25.270Z,93.32
2018-09-27T05:40:24.936Z,94.13
2018-09-27T05:41:25.187Z,93.93
2018-09-27T05:42:25.166Z,94.08
2018-09-27T05:43:25.151Z,93.74
2018-09-27T05:44:25.136Z,94.03
2018-09-27T05:45:24.864Z,94.13
2018-09-27T05:46:25.102Z,94.27
2018-09-27T05:47:25.089Z,94.32
2018-09-27T05:48:25.081Z,93.74
2018-09-27T05:49:25.059Z,93.37
2018-09-27T05:50:25.059Z,93.46
2018-09-27T05:51:25.109Z,93.22
2018-09-27T05:52:24.745Z,92.69
2018-09-27T05:53:24.999Z,92.74
2018-09-27T05:54:24.720Z,92.89
2018-09-27T05:55:24.698Z,92.6
2018-09-27T05:56:24.943Z,92.69
2018-09-27T05:57:24.953Z,92.79
2018-09-27T05:58:24.914Z,93.27
2018-09-27T05:59:24.900Z,93.08
2018-09-27T06:00:24.880Z,93.55
2018-09-27T06:01:24.871Z,93.51
2018-09-27T06:02:24.858Z,93.46
2018-09-27T06:03:24.882Z,93.46
2018-09-27T06:04:24.820Z,93.17
2018-09-27T06:05:24.805Z,92.89
2018-09-27T06:06:24.522Z,92.84
2018-09-27T06:07:24.775Z,92.84
2018-09-27T06:08:24.761Z,92.84
2018-09-27T06:09:24.483Z,92.27
2018-09-27T06:10:24.735Z,91.69
2018-09-27T06:11:24.517Z,91.03
2018-09-27T06:12:24.693Z,90.74
2018-09-27T06:13:24.673Z,90.93
2018-09-27T06:14:24.664Z,91.13
2018-09-27T06:15:24.748Z,91.79
2018-09-27T06:16:24.624Z,91.5
2018-09-27T06:17:24.610Z,91.6
2018-09-27T06:18:24.363Z,91.69
2018-09-27T06:19:24.714Z,91.6
2018-09-27T06:20:24.583Z,91.5
2018-09-27T06:21:24.579Z,91.13
2018-09-27T06:22:24.280Z,91.5
2018-09-27T06:23:24.516Z,91.5
2018-09-27T06:24:24.235Z,91.13
2018-09-27T06:25:24.483Z,90.74
2018-09-27T06:26:24.203Z,90.64
2018-09-27T06:27:24.557Z,90.36
2018-09-27T06:28:24.177Z,90.36
2018-09-27T06:29:24.425Z,90.93
2018-09-27T06:30:24.404Z,90.84
2018-09-27T06:31:24.180Z,91.41
2018-09-27T06:32:24.373Z,91.5
2018-09-27T06:33:24.430Z,91.5
2018-09-27T06:34:24.350Z,91.6
2018-09-27T06:35:24.069Z,91.79
2018-09-27T06:36:24.309Z,91.41
2018-09-27T06:37:24.297Z,91.41
2018-09-27T06:38:24.021Z,92.17
2018-09-27T06:39:23.997Z,93.32
2018-09-27T06:40:23.986Z,93.22
2018-09-27T06:41:24.293Z,93.41
2018-09-27T06:42:23.952Z,92.93
2018-09-27T06:43:23.936Z,93.22
2018-09-27T06:44:24.253Z,92.69
2018-09-27T06:45:24.173Z,92.88
2018-09-27T06:46:24.154Z,92.69
2018-09-27T06:47:24.141Z,93.27
2018-09-27T06:48:24.274Z,92.03
2018-09-27T06:49:23.847Z,92.12
2018-09-27T06:50:24.165Z,93.74
2018-09-27T06:51:23.817Z,93.36
2018-09-27T06:52:23.802Z,93.36
2018-09-27T06:53:24.045Z,93.08
2018-09-27T06:54:23.765Z,93.84
2018-09-27T06:55:24.719Z,93.74
2018-09-27T06:56:24.029Z,94.03
2018-09-27T06:57:24.187Z,93.93
2018-09-27T06:58:23.963Z,95.56
2018-09-27T06:59:23.687Z,94.74
2018-09-27T07:00:23.938Z,96.22
2018-09-27T07:01:23.662Z,96.37
2018-09-27T07:02:23.650Z,97.71
2018-09-27T07:03:23.626Z,97.99
2018-09-27T07:04:23.611Z,98.08
2018-09-27T07:05:23.868Z,99.99
2018-09-27T07:06:23.848Z,99.99
2018-09-27T07:07:23.688Z,99.99
2018-09-27T07:08:23.589Z,99.99
2018-09-27T07:09:23.534Z,99.99
2018-09-27T07:10:23.792Z,99.99
2018-09-27T07:11:23.775Z,99.99
2018-09-27T07:12:23.748Z,99.99
2018-09-27T07:13:23.737Z,99.99
2018-09-27T07:14:23.464Z,99.99
2018-09-27T07:15:23.755Z,99.99
2018-09-27T07:16:23.435Z,99.99
2018-09-27T07:17:23.676Z,99.99
2018-09-27T07:18:23.402Z,99.99
2018-09-27T07:19:23.646Z,99.99
2018-09-27T07:20:23.810Z,99.99
2018-09-27T07:21:23.614Z,99.99
2018-09-27T07:22:23.341Z,99.99
2018-09-27T07:23:23.591Z,99.99
2018-09-27T07:24:23.578Z,99.99
2018-09-27T07:25:23.560Z,99.99
2018-09-27T07:26:23.644Z,99.99
2018-09-27T07:27:23.526Z,99.99
2018-09-27T07:28:23.249Z,99.99
2018-09-27T07:29:23.496Z,99.99
2018-09-27T07:30:23.485Z,99.99
2018-09-27T07:31:23.474Z,99.99
2018-09-27T07:32:23.460Z,99.99
2018-09-27T07:33:23.345Z,99.99
2018-09-27T07:34:23.427Z,99.99
2018-09-27T07:35:23.142Z,99.99
2018-09-27T07:36:23.127Z,99.99
2018-09-27T07:37:23.117Z,99.99
2018-09-27T07:38:23.375Z,99.99
2018-09-27T07:39:23.354Z,99.99
2018-09-27T07:40:23.068Z,99.99
2018-09-27T07:41:23.054Z,99.99
2018-09-27T07:42:23.307Z,99.99
2018-09-27T07:43:23.295Z,99.99
2018-09-27T07:44:23.015Z,99.99
2018-09-27T07:45:23.263Z,99.99
2018-09-27T07:46:22.982Z,99.99
2018-09-27T07:47:23.231Z,99.99
2018-09-27T07:48:23.288Z,99.99
2018-09-27T07:49:23.206Z,99.99
2018-09-27T07:50:23.241Z,99.99
2018-09-27T07:51:22.909Z,99.99
2018-09-27T07:52:23.160Z,99.99
2018-09-27T07:53:23.144Z,99.99
2018-09-27T07:54:23.331Z,99.99
2018-09-27T07:55:23.116Z,99.99
2018-09-27T07:56:23.138Z,99.99
2018-09-27T07:57:23.089Z,99.99
2018-09-27T07:58:22.809Z,99.99
2018-09-27T07:59:22.802Z,99.99
2018-09-27T08:00:23.052Z,99.99
2018-09-27T08:01:23.037Z,99.99
2018-09-27T08:02:22.756Z,99.99
2018-09-27T08:03:22.737Z,99.99
2018-09-27T08:04:23.093Z,99.99
2018-09-27T08:05:22.979Z,99.99
2018-09-27T08:06:22.959Z,99.99
2018-09-27T08:07:22.688Z,99.99
2018-09-27T08:08:23.005Z,99.99
2018-09-27T08:09:22.921Z,99.99
2018-09-27T08:10:22.909Z,99.99
2018-09-27T08:11:22.686Z,99.99
2018-09-27T08:12:22.613Z,99.99
2018-09-27T08:13:22.867Z,99.99
2018-09-27T08:14:22.653Z,99.99
2018-09-27T08:15:22.583Z,99.99
2018-09-27T08:16:22.829Z,99.99
2018-09-27T08:17:23.096Z,99.99
2018-09-27T08:18:22.805Z,99.99
2018-09-27T08:19:22.795Z,99.99
2018-09-27T08:20:22.906Z,99.99
2018-09-27T08:21:22.949Z,99.99
2018-09-27T08:22:22.491Z,99.99
2018-09-27T08:23:22.737Z,99.99
2018-09-27T08:24:22.730Z,99.99
2018-09-27T08:25:22.714Z,99.99
2018-09-27T08:26:22.502Z,99.99
2018-09-27T08:27:22.743Z,99.99
2018-09-27T08:28:22.418Z,99.99
2018-09-27T08:29:22.664Z,99.99
2018-09-27T08:30:22.759Z,99.99
2018-09-27T08:31:22.641Z,99.99
2018-09-27T08:32:22.390Z,99.99
2018-09-27T08:33:22.348Z,99.99
2018-09-27T08:34:22.333Z,99.99
2018-09-27T08:35:22.325Z,99.99
2018-09-27T08:36:22.574Z,99.99
2018-09-27T08:37:22.297Z,99.99
2018-09-27T08:38:22.311Z,99.99
2018-09-27T08:39:22.539Z,99.99
2018-09-27T08:40:22.526Z,99.99
2018-09-27T08:41:22.246Z,99.99
2018-09-27T08:42:22.499Z,99.99
2018-09-27T08:43:22.487Z,99.99
2018-09-27T08:44:22.222Z,99.99
2018-09-27T08:45:22.597Z,99.99
2018-09-27T08:46:22.447Z,99.99
2018-09-27T08:47:22.169Z,99.99
2018-09-27T08:48:22.423Z,99.99
2018-09-27T08:49:22.144Z,99.99
2018-09-27T08:50:22.135Z,99.99
2018-09-27T08:51:22.422Z,99.99
2018-09-27T08:52:22.371Z,99.99
2018-09-27T08:53:22.357Z,99.99
2018-09-27T08:54:22.082Z,99.99
2018-09-27T08:55:22.118Z,99.99
2018-09-27T08:56:22.514Z,99.99
2018-09-27T08:57:22.245Z,99.99
2018-09-27T08:58:22.293Z,99.99
2018-09-27T08:59:22.015Z,99.99
2018-09-27T09:00:22.007Z,99.99
2018-09-27T09:01:21.996Z,99.99
2018-09-27T09:02:22.243Z,99.99
2018-09-27T09:03:22.272Z,99.99
2018-09-27T09:04:21.970Z,99.99
2018-09-27T09:05:22.216Z,99.99
2018-09-27T09:06:22.207Z,99.99
2018-09-27T09:07:21.927Z,99.99
2018-09-27T09:08:22.180Z,99.99
2018-09-27T09:09:21.896Z,99.99
2018-09-27T09:10:21.886Z,99.99
2018-09-27T09:11:22.137Z,99.99
2018-09-27T09:12:22.122Z,99.99
2018-09-27T09:13:22.178Z,99.99
2018-09-27T09:14:22.095Z,99.99
2018-09-27T09:15:22.110Z,99.39
2018-09-27T09:16:21.806Z,98.05
2018-09-27T09:17:21.793Z,95.46
2018-09-27T09:18:21.779Z,91.24
2018-09-27T09:19:22.034Z,91.42
2018-09-27T09:20:22.018Z,90.18
2018-09-27T09:21:21.744Z,90.75
2018-09-27T09:22:22.004Z,89.89
2018-09-27T09:23:21.716Z,89.32
2018-09-27T09:24:21.972Z,91.05
2018-09-27T09:25:21.693Z,90.32
2018-09-27T09:26:21.951Z,90.03
2018-09-27T09:27:21.934Z,89.55
2018-09-27T09:28:21.932Z,88.88
2018-09-27T09:29:21.719Z,89.55
2018-09-27T09:30:21.633Z,90.61
2018-09-27T09:31:21.887Z,89.17
2018-09-27T09:32:21.876Z,88.49
2018-09-27T09:33:21.889Z,87.92
2018-09-27T09:34:21.588Z,86.48
2018-09-27T09:35:21.861Z,88.59
2018-09-27T09:36:21.830Z,91.38
2018-09-27T09:37:21.548Z,86.68
2018-09-27T09:38:21.532Z,86.58
2018-09-27T09:39:21.525Z,88.98
2018-09-27T09:40:21.783Z,89.84
2018-09-27T09:41:21.497Z,86.1
2018-09-27T09:42:21.748Z,87.29
2018-09-27T09:43:21.475Z,86.14
2018-09-27T09:44:21.464Z,88.25
2018-09-27T09:45:21.713Z,86.14
2018-09-27T09:46:21.442Z,85.85
2018-09-27T09:47:21.688Z,84.51
2018-09-27T09:48:21.413Z,84.6
2018-09-27T09:49:21.665Z,84.89
2018-09-27T09:50:21.651Z,82.3
2018-09-27T09:51:21.380Z,82.97
2018-09-27T09:52:21.369Z,82.92
2018-09-27T09:53:21.620Z,82.87
2018-09-27T09:54:21.615Z,83.3
2018-09-27T09:55:21.594Z,82.82
2018-09-27T09:56:21.321Z,82.15
2018-09-27T09:57:21.578Z,82.15
2018-09-27T09:58:21.305Z,81.86
2018-09-27T09:59:21.285Z,82.05
2018-09-27T10:00:21.540Z,81.67
2018-09-27T10:01:21.533Z,81.57
2018-09-27T10:02:21.655Z,80.9
2018-09-27T10:03:21.239Z,82.24
2018-09-27T10:04:21.489Z,81.86
2018-09-27T10:05:21.216Z,81.19
2018-09-27T10:06:21.469Z,83.59
2018-09-27T10:07:21.191Z,82.43
2018-09-27T10:08:21.441Z,82.05
2018-09-27T10:09:21.167Z,81.99
2018-09-27T10:10:21.428Z,82.57
2018-09-27T10:11:21.143Z,81.81
2018-09-27T10:12:21.403Z,80.65
2018-09-27T10:13:21.390Z,80.07
2018-09-27T10:14:21.112Z,79.21
2018-09-27T10:15:21.107Z,79.21
2018-09-27T10:16:21.088Z,78.34
2018-09-27T10:17:21.085Z,77.58
2018-09-27T10:18:21.068Z,76.26
2018-09-27T10:19:21.337Z,76.42
2018-09-27T10:20:21.046Z,76.42
2018-09-27T10:21:21.031Z,74.21
2018-09-27T10:22:21.020Z,74.73
2018-09-27T10:23:21.013Z,74.34
2018-09-27T10:24:21.004Z,71.52
2018-09-27T10:25:20.989Z,72.32
2018-09-27T10:26:20.978Z,71.36
2018-09-27T10:27:21.288Z,71.08
2018-09-27T10:28:21.222Z,71.65
2018-09-27T10:29:20.942Z,70.4
2018-09-27T10:30:20.934Z,71.26
2018-09-27T10:31:20.923Z,69.24
2018-09-27T10:32:20.911Z,69.95
2018-09-27T10:33:21.177Z,71.78
2018-09-27T10:34:21.367Z,72.26
2018-09-27T10:35:20.878Z,71.49
2018-09-27T10:36:20.869Z,71.97
2018-09-27T10:37:20.859Z,71.69
2018-09-27T10:38:20.845Z,71.59
2018-09-27T10:39:20.841Z,69.09
2018-09-27T10:40:20.826Z,66.39
2018-09-27T10:41:21.078Z,66.3
2018-09-27T10:42:20.809Z,67.35
2018-09-27T10:43:20.793Z,67.45
2018-09-27T10:44:20.784Z,67.07
2018-09-27T10:45:21.039Z,67.35
2018-09-27T10:46:21.030Z,67.45
2018-09-27T10:47:21.023Z,67.45
2018-09-27T10:48:21.005Z,65.63
2018-09-27T10:49:21.001Z,67.39
2018-09-27T10:50:20.726Z,68.6
2018-09-27T10:51:20.722Z,66.39
2018-09-27T10:52:20.975Z,66.2
2018-09-27T10:53:20.694Z,66.91
2018-09-27T10:54:20.944Z,66.33
2018-09-27T10:55:20.938Z,65.37
2018-09-27T10:56:20.924Z,66.04
2018-09-27T10:57:20.905Z,65.17
2018-09-27T10:58:20.641Z,64.21
2018-09-27T10:59:20.894Z,64.4
2018-09-27T11:00:20.885Z,64.59
2018-09-27T11:01:20.871Z,66.52
2018-09-27T11:02:20.596Z,65.66
2018-09-27T11:03:20.848Z,64.34
2018-09-27T11:04:20.577Z,65.59
2018-09-27T11:05:20.834Z,63.28
2018-09-27T11:06:20.824Z,61.65
2018-09-27T11:07:20.810Z,59.72
2018-09-27T11:08:20.534Z,60
2018-09-27T11:09:20.795Z,60.77
2018-09-27T11:10:20.517Z,60.49
2018-09-27T11:11:20.540Z,59.55
2018-09-27T11:12:20.496Z,59.94
2018-09-27T11:13:20.748Z,59.43
2018-09-27T11:14:20.479Z,59.43
2018-09-27T11:15:20.470Z,61.96
2018-09-27T11:16:20.720Z,62.15
2018-09-27T11:17:20.724Z,60.71
2018-09-27T11:18:20.700Z,62.35
2018-09-27T11:19:20.688Z,61
2018-09-27T11:20:20.688Z,61.68
2018-09-27T11:21:20.671Z,61.19
2018-09-27T11:22:20.400Z,60.9
2018-09-27T11:23:20.706Z,60.9
2018-09-27T11:24:20.379Z,59.55
2018-09-27T11:25:20.634Z,60.9
2018-09-27T11:26:20.626Z,59.94
2018-09-27T11:27:20.352Z,59.36
2018-09-27T11:28:20.612Z,60.74
2018-09-27T11:29:20.459Z,61.03
2018-09-27T11:30:20.328Z,61.13
2018-09-27T11:31:20.584Z,60.83
2018-09-27T11:32:20.572Z,60.55
2018-09-27T11:33:20.576Z,60.64
2018-09-27T11:34:20.294Z,60.83
2018-09-27T11:35:20.550Z,60.68
2018-09-27T11:36:20.681Z,60.58
2018-09-27T11:37:20.529Z,60.48
2018-09-27T11:38:20.524Z,59.8
2018-09-27T11:39:20.520Z,60.68
2018-09-27T11:40:20.506Z,60.19
2018-09-27T11:41:20.235Z,58.94
2018-09-27T11:42:20.586Z,57.42
2018-09-27T11:43:20.491Z,57.14
2018-09-27T11:44:20.481Z,56.46
2018-09-27T11:45:20.469Z,57.04
2018-09-27T11:46:20.211Z,55.4
2018-09-27T11:47:20.459Z,54.36
2018-09-27T11:48:20.186Z,54.55
2018-09-27T11:49:20.317Z,54.97
2018-09-27T11:50:20.653Z,54
2018-09-27T11:51:20.172Z,54
2018-09-27T11:52:20.164Z,51.71
2018-09-27T11:53:20.160Z,52.12
2018-09-27T11:54:20.428Z,49.41
2018-09-27T11:55:20.414Z,50.31
2018-09-27T11:56:20.410Z,50.79
2018-09-27T11:57:20.143Z,50.89
2018-09-27T11:58:20.408Z,51.01
2018-09-27T11:59:20.400Z,50.16
2018-09-27T12:00:20.410Z,51.16
2018-09-27T12:01:20.425Z,49.7
2018-09-27T12:02:20.135Z,48.37
2018-09-27T12:03:20.131Z,46.75
2018-09-27T12:04:20.131Z,46.86
2018-09-27T12:05:20.133Z,46.38
2018-09-27T12:06:20.194Z,47.47
2018-09-27T12:07:20.421Z,44.89
2018-09-27T12:08:20.398Z,45.09
2018-09-27T12:09:20.140Z,42.9
2018-09-27T12:10:20.135Z,43.38
2018-09-27T12:11:20.399Z,43.77
2018-09-27T12:12:20.415Z,42.53
2018-09-27T12:13:20.511Z,43.33
2018-09-27T12:14:20.143Z,40.62
2018-09-27T12:15:20.411Z,41.2
2018-09-27T12:16:20.414Z,41.03
2018-09-27T12:17:20.154Z,40.45
2018-09-27T12:18:20.158Z,37.75
2018-09-27T12:19:20.428Z,39.67
2018-09-27T12:20:20.172Z,39.2
2018-09-27T12:21:20.435Z,37.37
2018-09-27T12:22:20.448Z,39
2018-09-27T12:23:20.455Z,39.22
2018-09-27T12:24:20.445Z,37.09
2018-09-27T12:25:20.186Z,37.19
2018-09-27T12:26:20.187Z,37.19
2018-09-27T12:27:20.460Z,36.7
2018-09-27T12:28:20.198Z,37.87
2018-09-27T12:29:20.202Z,37.21
2018-09-27T12:30:20.475Z,36.72
2018-09-27T12:31:20.473Z,35.94
2018-09-27T12:32:20.221Z,35.84
2018-09-27T12:33:20.225Z,35.84
2018-09-27T12:34:20.232Z,36.04
2018-09-27T12:35:20.494Z,36.13
2018-09-27T12:36:20.499Z,36.91
2018-09-27T12:37:20.238Z,37.4
2018-09-27T12:38:20.618Z,37.91
2018-09-27T12:39:20.524Z,37.54
2018-09-27T12:40:20.524Z,35.68
2018-09-27T12:41:20.522Z,35.69
2018-09-27T12:42:20.833Z,34.81
2018-09-27T12:43:20.532Z,35.3
2018-09-27T12:44:20.543Z,34.81
2018-09-27T12:45:20.328Z,35.58
2018-09-27T12:46:20.364Z,34.91
2018-09-27T12:47:20.294Z,34.13
2018-09-27T12:48:20.625Z,33.25
2018-09-27T12:49:20.308Z,34.03
2018-09-27T12:50:20.304Z,34.03
2018-09-27T12:51:20.527Z,34.42
2018-09-27T12:52:21.208Z,34.33
2018-09-27T12:53:20.725Z,35.5
2018-09-27T12:54:20.590Z,34.52